Time;durP1;ratioP1;P1;durP2;ratioP2;P2;SDS_P1;SDS_P2;PMS_P1;PMS_P2;Temp;Humidity;BMP_temperature;BMP_pressure;BME280_temperature;BME280_humidity;BME280_pressure;Samples;Min_cycle;Max_cycle;Signal;HPM_P1;HPM_P2
2022/05/07 00:00:46;;;;;;;8.48;6.00;;;;;;;;;;5029387;28;20041;-74
2022/05/07 00:03:13;;;;;;;6.40;5.80;;;;;;;;;;5031959;28;20427;-74
2022/05/07 00:05:38;;;;;;;6.63;5.68;;;;;;;;;;5031979;28;20025;-74
2022/05/07 00:08:05;;;;;;;7.13;5.95;;;;;;;;;;5039164;28;20024;-74
2022/05/07 00:10:31;;;;;;;9.10;5.63;;;;;;;;;;5044373;28;20028;-74
2022/05/07 00:12:56;;;;;;;6.53;5.53;;;;;;;;;;5043154;28;20454;-75
2022/05/07 00:15:22;;;;;;;8.93;5.60;;;;;;;;;;5031061;28;20061;-75
2022/05/07 00:18:04;;;;;;;8.18;5.82;;;;;;;;;;5046179;28;20021;-74
2022/05/07 00:20:30;;;;;;;8.05;6.18;;;;;;;;;;5051607;28;20033;-74
2022/05/07 00:22:56;;;;;;;6.32;5.70;;;;;;;;;;5051790;28;20100;-74
2022/05/07 00:25:22;;;;;;;7.75;6.07;;;;;;;;;;5052008;28;20405;-74
2022/05/07 00:27:47;;;;;;;7.55;5.85;;;;;;;;;;5043475;28;20021;-74
2022/05/07 00:30:13;;;;;;;7.43;6.13;;;;;;;;;;5030960;28;20033;-74
2022/05/07 00:32:38;;;;;;;6.07;5.53;;;;;;;;;;5034490;28;20082;-73
2022/05/07 00:35:04;;;;;;;8.00;5.85;;;;;;;;;;5034150;28;20479;-74
2022/05/07 00:37:29;;;;;;;6.95;6.28;;;;;;;;;;5029850;28;20430;-74
2022/05/07 00:39:54;;;;;;;8.77;6.35;;;;;;;;;;5031057;28;20325;-74
2022/05/07 00:42:20;;;;;;;7.43;6.72;;;;;;;;;;5034044;28;20017;-74
2022/05/07 00:44:46;;;;;;;7.18;5.85;;;;;;;;;;5042594;28;20401;-74
2022/05/07 00:47:14;;;;;;;7.78;6.40;;;;;;;;;;5029864;28;20071;-74
2022/05/07 00:49:48;;;;;;;8.32;6.57;;;;;;;;;;5031177;28;20029;-74
2022/05/07 00:52:14;;;;;;;9.60;6.43;;;;;;;;;;5031374;28;20640;-74
2022/05/07 00:54:40;;;;;;;10.52;6.00;;;;;;;;;;5031144;28;20109;-74
2022/05/07 00:57:08;;;;;;;9.65;6.43;;;;;;;;;;5030881;28;20049;-73
2022/05/07 00:59:34;;;;;;;6.97;6.28;;;;;;;;;;5038301;28;20041;-75
2022/05/07 01:01:59;;;;;;;8.43;5.93;;;;;;;;;;5038174;28;20033;-74
2022/05/07 01:04:24;;;;;;;6.80;6.10;;;;;;;;;;5030817;28;20013;-74
2022/05/07 01:06:50;;;;;;;8.13;5.70;;;;;;;;;;5030976;28;20022;-74
2022/05/07 01:09:16;;;;;;;7.07;5.47;;;;;;;;;;5031044;28;20021;-74
2022/05/07 01:11:42;;;;;;;6.60;5.57;;;;;;;;;;5030052;28;20025;-74
2022/05/07 01:14:07;;;;;;;9.40;6.25;;;;;;;;;;5031226;28;20515;-74
2022/05/07 01:16:33;;;;;;;7.28;5.82;;;;;;;;;;5042219;28;20052;-74
2022/05/07 01:18:58;;;;;;;7.80;6.40;;;;;;;;;;5040710;28;20021;-74
2022/05/07 01:21:23;;;;;;;7.60;6.63;;;;;;;;;;5030612;28;20075;-74
2022/05/07 01:23:49;;;;;;;7.20;6.30;;;;;;;;;;5030812;28;20041;-74
2022/05/07 01:26:17;;;;;;;8.20;7.22;;;;;;;;;;5031610;28;20038;-74
2022/05/07 01:28:42;;;;;;;8.10;6.53;;;;;;;;;;5041571;28;20099;-74
2022/05/07 01:31:08;;;;;;;8.98;6.82;;;;;;;;;;5050459;28;20162;-74
2022/05/07 01:33:34;;;;;;;6.78;6.05;;;;;;;;;;5050154;28;20028;-74
2022/05/07 01:36:03;;;;;;;7.80;6.35;;;;;;;;;;5036321;28;20171;-74
2022/05/07 01:38:29;;;;;;;6.60;5.78;;;;;;;;;;5022268;28;20029;-74
2022/05/07 01:40:55;;;;;;;7.78;6.28;;;;;;;;;;5030033;28;20114;-74
2022/05/07 01:43:20;;;;;;;8.88;6.20;;;;;;;;;;5030221;28;20182;-74
2022/05/07 01:45:45;;;;;;;8.77;6.65;;;;;;;;;;5030190;28;20300;-74
2022/05/07 01:48:11;;;;;;;7.13;6.43;;;;;;;;;;5029617;28;20029;-74
2022/05/07 01:50:38;;;;;;;7.75;6.60;;;;;;;;;;5032746;28;20134;-74
2022/05/07 01:53:04;;;;;;;7.50;6.55;;;;;;;;;;5030223;28;20431;-74
2022/05/07 01:55:31;;;;;;;9.30;6.55;;;;;;;;;;5032616;28;20111;-74
2022/05/07 01:57:56;;;;;;;10.43;6.90;;;;;;;;;;5041554;28;20016;-75
2022/05/07 02:00:21;;;;;;;7.53;6.72;;;;;;;;;;5049859;28;20033;-74
2022/05/07 02:02:47;;;;;;;6.90;6.20;;;;;;;;;;5049722;28;20028;-74
2022/05/07 02:05:12;;;;;;;7.38;6.63;;;;;;;;;;5049704;28;20129;-74
2022/05/07 02:07:37;;;;;;;10.35;6.63;;;;;;;;;;5043633;28;20091;-74
2022/05/07 02:10:04;;;;;;;6.97;6.03;;;;;;;;;;5029277;28;20049;-74
2022/05/07 02:12:29;;;;;;;6.82;6.13;;;;;;;;;;5029508;28;20435;-74
2022/05/07 02:14:55;;;;;;;7.13;6.40;;;;;;;;;;5036617;28;20486;-74
2022/05/07 02:17:20;;;;;;;8.07;6.20;;;;;;;;;;5064111;22;20398;-73
2022/05/07 02:19:45;;;;;;;8.38;6.38;;;;;;;;;;5047869;28;20460;-72
2022/05/07 02:22:11;;;;;;;9.05;6.57;;;;;;;;;;5047743;28;20035;-72
2022/05/07 02:24:36;;;;;;;8.35;6.65;;;;;;;;;;5048573;28;20021;-72
2022/05/07 02:27:03;;;;;;;8.45;6.72;;;;;;;;;;5057499;28;20348;-71
2022/05/07 02:29:28;;;;;;;7.85;7.05;;;;;;;;;;5048975;28;20378;-71
2022/05/07 02:32:06;;;;;;;8.65;6.53;;;;;;;;;;5047762;28;20033;-72
2022/05/07 02:34:36;;;;;;;8.15;6.65;;;;;;;;;;5044465;28;20063;-72
2022/05/07 02:37:03;;;;;;;10.55;7.00;;;;;;;;;;5048870;28;20021;-72
2022/05/07 02:39:29;;;;;;;9.43;7.00;;;;;;;;;;5035785;28;20549;-72
2022/05/07 02:44:39;;;;;;;8.68;6.60;;;;;;;;;;5036523;28;20032;-71
2022/05/07 02:47:05;;;;;;;9.38;6.88;;;;;;;;;;5040134;28;20127;-72
2022/05/07 02:49:31;;;;;;;9.30;6.70;;;;;;;;;;5048515;28;20037;-72
2022/05/07 02:51:56;;;;;;;9.93;6.80;;;;;;;;;;5039583;28;20033;-72
2022/05/07 02:54:22;;;;;;;8.38;6.35;;;;;;;;;;5048919;28;20021;-71
2022/05/07 02:56:47;;;;;;;8.93;6.38;;;;;;;;;;5023356;28;20057;-72
2022/05/07 02:59:12;;;;;;;10.10;7.20;;;;;;;;;;5028473;28;20474;-72
2022/05/07 03:01:37;;;;;;;9.43;7.55;;;;;;;;;;5028857;28;20037;-73
2022/05/07 03:04:03;;;;;;;8.18;7.38;;;;;;;;;;5028848;28;20478;-72
2022/05/07 03:06:28;;;;;;;7.90;7.10;;;;;;;;;;5028808;28;20029;-72
2022/05/07 03:08:53;;;;;;;7.82;7.03;;;;;;;;;;5028573;28;20025;-71
2022/05/07 03:11:19;;;;;;;10.60;7.47;;;;;;;;;;5027839;28;20026;-72
2022/05/07 03:13:44;;;;;;;8.20;6.93;;;;;;;;;;5029019;28;20059;-71
2022/05/07 03:16:09;;;;;;;8.68;6.78;;;;;;;;;;5028892;28;20032;-72
2022/05/07 03:18:35;;;;;;;8.10;7.30;;;;;;;;;;5027442;28;20028;-72
2022/05/07 03:21:01;;;;;;;8.77;7.57;;;;;;;;;;5045005;28;20437;-72
2022/05/07 03:23:26;;;;;;;9.05;7.43;;;;;;;;;;5048555;28;20025;-72
2022/05/07 03:25:52;;;;;;;10.55;6.88;;;;;;;;;;5048593;28;20039;-72
2022/05/07 03:28:17;;;;;;;8.70;6.93;;;;;;;;;;5042682;28;20068;-72
2022/05/07 03:30:43;;;;;;;8.93;7.88;;;;;;;;;;5023024;28;20067;-73
2022/05/07 03:33:08;;;;;;;9.52;7.57;;;;;;;;;;5028586;28;20029;-71
2022/05/07 03:35:33;;;;;;;8.15;7.32;;;;;;;;;;5029544;28;20025;-71
2022/05/07 03:37:59;;;;;;;9.65;7.45;;;;;;;;;;5032069;28;20027;-72
2022/05/07 03:40:24;;;;;;;8.70;7.80;;;;;;;;;;5032334;28;20491;-72
2022/05/07 03:42:49;;;;;;;8.30;7.03;;;;;;;;;;5032293;28;20045;-72
2022/05/07 03:45:15;;;;;;;10.00;7.25;;;;;;;;;;5030756;28;20029;-72
2022/05/07 03:47:40;;;;;;;8.43;7.53;;;;;;;;;;5039561;28;20156;-73
2022/05/07 03:50:06;;;;;;;11.95;7.13;;;;;;;;;;5031945;28;20025;-72
2022/05/07 03:55:16;;;;;;;8.63;6.60;;;;;;;;;;5032395;28;20397;-72
2022/05/07 03:57:41;;;;;;;8.82;7.38;;;;;;;;;;5032129;28;20022;-72
2022/05/07 04:00:07;;;;;;;8.45;7.10;;;;;;;;;;5031989;28;20040;-72
2022/05/07 04:02:35;;;;;;;7.63;6.85;;;;;;;;;;5031066;28;20041;-73
2022/05/07 04:05:01;;;;;;;8.73;7.45;;;;;;;;;;5031893;28;20146;-73
2022/05/07 04:07:26;;;;;;;9.90;7.28;;;;;;;;;;5031995;28;20439;-72
2022/05/07 04:09:54;;;;;;;11.70;8.00;;;;;;;;;;5031750;28;20029;-70
2022/05/07 04:12:20;;;;;;;8.57;7.63;;;;;;;;;;5031513;28;20104;-72
2022/05/07 04:14:45;;;;;;;10.05;7.40;;;;;;;;;;5046049;28;20577;-73
2022/05/07 04:17:10;;;;;;;10.35;8.15;;;;;;;;;;5042656;28;20032;-72
2022/05/07 04:19:36;;;;;;;10.10;7.93;;;;;;;;;;5029378;28;20041;-71
2022/05/07 04:22:01;;;;;;;9.55;7.80;;;;;;;;;;5031571;28;20112;-71
2022/05/07 04:24:27;;;;;;;10.20;7.20;;;;;;;;;;5031520;28;20025;-72
2022/05/07 04:26:52;;;;;;;9.93;7.90;;;;;;;;;;5031105;28;20029;-72
2022/05/07 04:29:18;;;;;;;8.73;7.50;;;;;;;;;;5049826;28;20013;-72
2022/05/07 04:31:44;;;;;;;9.50;7.32;;;;;;;;;;5051395;28;20078;-72
2022/05/07 04:34:10;;;;;;;9.10;7.60;;;;;;;;;;5041418;28;20022;-72
2022/05/07 04:36:35;;;;;;;11.88;8.10;;;;;;;;;;5025918;28;20029;-72
2022/05/07 04:39:01;;;;;;;10.18;7.63;;;;;;;;;;5030752;28;20532;-72
2022/05/07 04:41:26;;;;;;;9.60;7.28;;;;;;;;;;5031321;28;20061;-73
2022/05/07 04:43:51;;;;;;;8.18;7.38;;;;;;;;;;5031256;28;20065;-72
2022/05/07 04:46:17;;;;;;;9.77;7.55;;;;;;;;;;5027696;28;20113;-73
2022/05/07 04:48:43;;;;;;;12.27;7.95;;;;;;;;;;5049505;28;20522;-71
2022/05/07 04:51:09;;;;;;;9.60;7.30;;;;;;;;;;5038828;28;20116;-72
2022/05/07 04:53:34;;;;;;;9.05;7.05;;;;;;;;;;5030925;28;20064;-72
2022/05/07 04:55:59;;;;;;;9.65;7.53;;;;;;;;;;5030966;28;20034;-71
2022/05/07 04:58:25;;;;;;;8.68;7.35;;;;;;;;;;5030703;28;20022;-72
2022/05/07 05:00:52;;;;;;;9.35;7.18;;;;;;;;;;5031242;28;20132;-71
2022/05/07 05:03:17;;;;;;;8.77;7.15;;;;;;;;;;5032607;28;20029;-70
2022/05/07 05:05:44;;;;;;;9.02;7.30;;;;;;;;;;5051242;28;20122;-71
2022/05/07 05:08:09;;;;;;;8.75;6.95;;;;;;;;;;5036841;28;20086;-71
2022/05/07 05:10:35;;;;;;;8.88;7.18;;;;;;;;;;5030819;28;20491;-72
2022/05/07 05:13:00;;;;;;;8.43;7.35;;;;;;;;;;5030843;28;20737;-72
2022/05/07 05:15:26;;;;;;;9.10;7.95;;;;;;;;;;5030635;28;20021;-72
2022/05/07 05:17:52;;;;;;;8.60;7.53;;;;;;;;;;5030276;28;20057;-71
2022/05/07 05:20:18;;;;;;;9.43;7.28;;;;;;;;;;5030665;28;20068;-72
2022/05/07 05:22:50;;;;;;;8.85;7.47;;;;;;;;;;5029725;28;20029;-73
2022/05/07 05:25:16;;;;;;;10.25;7.82;;;;;;;;;;5029662;28;20056;-72
2022/05/07 05:27:42;;;;;;;10.32;8.50;;;;;;;;;;5035056;28;20428;-72
2022/05/07 05:30:08;;;;;;;8.93;7.60;;;;;;;;;;5049913;28;20021;-72
2022/05/07 05:32:33;;;;;;;8.88;7.97;;;;;;;;;;5046283;28;20525;-72
2022/05/07 05:34:58;;;;;;;9.48;7.60;;;;;;;;;;5041893;28;20060;-70
2022/05/07 05:37:24;;;;;;;8.40;7.40;;;;;;;;;;5024411;28;20027;-72
2022/05/07 05:39:49;;;;;;;11.15;8.90;;;;;;;;;;5024145;28;20104;-72
2022/05/07 05:42:15;;;;;;;9.05;7.55;;;;;;;;;;5025576;28;20723;-71
2022/05/07 05:44:42;;;;;;;8.90;7.43;;;;;;;;;;5026051;28;20026;-72
2022/05/07 05:47:08;;;;;;;8.95;7.55;;;;;;;;;;5025410;28;20100;-71
2022/05/07 05:49:34;;;;;;;9.48;8.50;;;;;;;;;;5026772;28;20041;-72
2022/05/07 05:52:04;;;;;;;11.13;8.07;;;;;;;;;;5023631;28;20391;-72
2022/05/07 05:54:30;;;;;;;10.77;7.80;;;;;;;;;;5020101;28;20044;-71
2022/05/07 05:56:56;;;;;;;9.88;7.90;;;;;;;;;;5024481;28;20475;-72
2022/05/07 05:59:21;;;;;;;10.00;8.30;;;;;;;;;;5028499;28;20032;-72
2022/05/07 06:01:47;;;;;;;11.20;7.88;;;;;;;;;;5043576;28;20028;-73
2022/05/07 06:04:14;;;;;;;8.55;6.88;;;;;;;;;;5039866;28;20029;-72
2022/05/07 06:06:39;;;;;;;10.70;7.25;;;;;;;;;;5049377;28;20028;-72
2022/05/07 06:09:04;;;;;;;8.07;7.03;;;;;;;;;;5049243;28;20017;-72
2022/05/07 06:11:30;;;;;;;9.85;7.70;;;;;;;;;;5049299;28;20125;-70
2022/05/07 06:13:55;;;;;;;7.82;7.03;;;;;;;;;;5025493;28;20026;-72
2022/05/07 06:16:20;;;;;;;8.00;6.60;;;;;;;;;;5029538;28;20114;-72
2022/05/07 06:18:46;;;;;;;9.27;6.57;;;;;;;;;;5047299;28;20540;-73
2022/05/07 06:21:11;;;;;;;8.65;6.97;;;;;;;;;;5029133;28;20055;-73
2022/05/07 06:23:36;;;;;;;8.55;6.53;;;;;;;;;;5026744;28;20029;-72
2022/05/07 06:28:45;;;;;;;7.00;6.07;;;;;;;;;;5037434;28;20063;-71
2022/05/07 06:31:11;;;;;;;7.57;6.60;;;;;;;;;;5026510;28;20025;-72
2022/05/07 06:33:38;;;;;;;6.97;6.30;;;;;;;;;;5041395;28;20025;-72
2022/05/07 06:36:07;;;;;;;8.32;6.60;;;;;;;;;;5047744;28;20028;-72
2022/05/07 06:38:33;;;;;;;6.53;5.90;;;;;;;;;;5048615;28;20029;-73
2022/05/07 06:41:02;;;;;;;7.22;6.05;;;;;;;;;;5048687;28;20029;-72
2022/05/07 06:43:29;;;;;;;8.15;6.32;;;;;;;;;;5033752;28;20028;-72
2022/05/07 06:45:54;;;;;;;9.43;6.22;;;;;;;;;;5048937;28;20495;-72
2022/05/07 06:48:20;;;;;;;6.72;6.13;;;;;;;;;;5024775;28;20036;-72
2022/05/07 06:50:45;;;;;;;9.27;6.22;;;;;;;;;;5029059;28;20030;-71
2022/05/07 06:53:11;;;;;;;7.63;6.35;;;;;;;;;;5037800;28;20033;-73
2022/05/07 06:55:54;;;;;;;6.85;6.25;;;;;;;;;;5025289;28;20494;-72
2022/05/07 06:58:25;;;;;;;8.07;6.57;;;;;;;;;;5027790;28;20022;-72
2022/05/07 07:00:51;;;;;;;7.43;6.68;;;;;;;;;;5037818;28;20471;-72
2022/05/07 07:03:16;;;;;;;9.40;7.07;;;;;;;;;;5036353;28;20037;-72
2022/05/07 07:05:42;;;;;;;9.35;6.95;;;;;;;;;;5027870;28;20572;-72
2022/05/07 07:08:08;;;;;;;10.30;7.40;;;;;;;;;;5025029;28;20021;-71
2022/05/07 07:10:33;;;;;;;9.13;7.20;;;;;;;;;;5029702;28;20387;-73
2022/05/07 07:12:58;;;;;;;8.85;7.95;;;;;;;;;;5032673;28;20415;-72
2022/05/07 07:15:24;;;;;;;10.35;7.78;;;;;;;;;;5029109;28;20064;-73
2022/05/07 07:17:49;;;;;;;12.23;8.70;;;;;;;;;;5018662;28;20018;-72
2022/05/07 07:20:15;;;;;;;10.18;8.15;;;;;;;;;;5022162;28;20261;-72
2022/05/07 07:22:41;;;;;;;9.77;8.38;;;;;;;;;;5033539;28;20052;-71
2022/05/07 07:25:06;;;;;;;12.40;9.52;;;;;;;;;;5029811;28;20506;-72
2022/05/07 07:27:32;;;;;;;9.70;8.70;;;;;;;;;;5033276;28;20191;-72
2022/05/07 07:29:57;;;;;;;11.27;8.88;;;;;;;;;;5033216;28;20059;-72
2022/05/07 07:32:23;;;;;;;11.07;8.60;;;;;;;;;;5031231;28;20037;-70
2022/05/07 07:34:49;;;;;;;10.57;9.20;;;;;;;;;;5022305;28;20078;-71
2022/05/07 07:37:14;;;;;;;11.88;8.98;;;;;;;;;;5030051;28;20487;-72
2022/05/07 07:39:39;;;;;;;11.50;9.10;;;;;;;;;;5030420;28;20029;-72
2022/05/07 07:42:05;;;;;;;11.05;9.05;;;;;;;;;;5028479;28;20475;-73
2022/05/07 07:44:30;;;;;;;12.50;10.00;;;;;;;;;;5030266;28;20559;-74
2022/05/07 07:49:40;;;;;;;8.65;7.75;;;;;;;;;;5028580;28;20028;-71
2022/05/07 07:52:05;;;;;;;7.82;6.82;;;;;;;;;;5034583;28;20167;-73
2022/05/07 07:54:30;;;;;;;8.05;7.25;;;;;;;;;;5032468;28;20037;-72
2022/05/07 07:56:58;;;;;;;9.05;7.65;;;;;;;;;;5035111;28;20075;-72
2022/05/07 07:59:23;;;;;;;8.50;7.03;;;;;;;;;;5034455;28;20032;-72
2022/05/07 08:01:49;;;;;;;9.98;7.18;;;;;;;;;;5035223;28;20029;-75
2022/05/07 08:04:14;;;;;;;8.05;6.13;;;;;;;;;;5028739;28;20037;-72
2022/05/07 08:06:39;;;;;;;10.25;6.43;;;;;;;;;;5023675;28;20059;-72
2022/05/07 08:11:50;;;;;;;7.60;6.47;;;;;;;;;;5043962;28;20326;-73
2022/05/07 08:14:15;;;;;;;6.75;6.15;;;;;;;;;;5043794;28;20121;-71
2022/05/07 08:16:42;;;;;;;6.43;5.75;;;;;;;;;;5033742;28;20125;-69
2022/05/07 08:19:07;;;;;;;7.57;5.68;;;;;;;;;;5080386;22;20048;-78
2022/05/07 08:21:33;;;;;;;6.93;6.22;;;;;;;;;;5080260;28;20060;-78
2022/05/07 08:23:59;;;;;;;7.65;4.93;;;;;;;;;;5080178;28;20032;-77
2022/05/07 08:26:24;;;;;;;8.82;6.20;;;;;;;;;;5074386;28;20666;-77
2022/05/07 08:28:53;;;;;;;5.55;5.05;;;;;;;;;;5067847;28;20043;-78
2022/05/07 08:31:23;;;;;;;5.45;4.90;;;;;;;;;;5059425;28;20043;-80
2022/05/07 08:33:49;;;;;;;5.30;4.80;;;;;;;;;;5061895;28;20425;-78
2022/05/07 08:36:14;;;;;;;8.27;6.30;;;;;;;;;;5058832;28;20478;-80
2022/05/07 08:38:40;;;;;;;7.50;5.60;;;;;;;;;;5059292;28;20112;-78
2022/05/07 08:41:06;;;;;;;6.95;6.25;;;;;;;;;;5057172;28;20080;-79
2022/05/07 08:43:38;;;;;;;7.72;6.88;;;;;;;;;;5063095;28;20079;-78
2022/05/07 08:46:08;;;;;;;11.82;8.23;;;;;;;;;;5056191;28;20094;-82
2022/05/07 08:48:33;;;;;;;7.22;6.53;;;;;;;;;;5060501;28;20043;-78
2022/05/07 08:50:59;;;;;;;7.82;7.05;;;;;;;;;;5057936;28;20081;-83
2022/05/07 08:53:25;;;;;;;8.52;6.68;;;;;;;;;;5058302;28;20021;-79
2022/05/07 08:55:56;;;;;;;12.65;8.90;;;;;;;;;;5057775;28;20307;-81
2022/05/07 08:58:22;;;;;;;7.88;6.30;;;;;;;;;;5059032;28;20020;-80
2022/05/07 09:00:48;;;;;;;8.93;7.55;;;;;;;;;;5055947;28;20120;-80
2022/05/07 09:03:17;;;;;;;8.45;7.60;;;;;;;;;;5063133;28;20118;-80
2022/05/07 09:05:43;;;;;;;8.85;6.72;;;;;;;;;;5055289;28;20017;-82
2022/05/07 09:08:10;;;;;;;8.75;6.50;;;;;;;;;;5054039;28;20055;-80
2022/05/07 09:10:37;;;;;;;6.53;5.93;;;;;;;;;;5056886;28;20025;-78
2022/05/07 09:13:16;;;;;;;11.90;7.35;;;;;;;;;;5057036;28;20131;-80
2022/05/07 09:15:56;;;;;;;13.48;8.85;;;;;;;;;;5059585;28;20028;-79
2022/05/07 09:18:23;;;;;;;15.00;10.30;;;;;;;;;;5052416;28;20359;-80
2022/05/07 09:21:26;;;;;;;13.05;8.20;;;;;;;;;;5053800;28;20513;-80
2022/05/07 09:23:58;;;;;;;11.32;8.10;;;;;;;;;;5051898;28;20021;-79
2022/05/07 09:26:30;;;;;;;11.95;8.63;;;;;;;;;;5056267;28;20025;-80
2022/05/07 09:28:55;;;;;;;17.45;12.07;;;;;;;;;;5056476;28;20035;-80
2022/05/07 09:31:31;;;;;;;12.23;9.48;;;;;;;;;;5051463;28;20037;-81
2022/05/07 09:36:42;;;;;;;14.30;9.10;;;;;;;;;;5055632;28;20078;-80
2022/05/07 09:39:11;;;;;;;11.68;9.30;;;;;;;;;;5055389;28;20021;-79
2022/05/07 09:41:37;;;;;;;16.17;10.43;;;;;;;;;;5056318;28;20360;-77
2022/05/07 09:44:03;;;;;;;12.73;9.10;;;;;;;;;;5050860;28;20029;-77
2022/05/07 09:46:30;;;;;;;13.52;9.13;;;;;;;;;;5049334;28;20021;-78
2022/05/07 09:48:58;;;;;;;15.63;11.35;;;;;;;;;;5045352;28;20048;-76
2022/05/07 09:51:24;;;;;;;14.27;10.88;;;;;;;;;;5052172;28;20528;-77
2022/05/07 09:59:18;;;;;;;19.75;12.88;;;;;;;;;;5045628;28;20060;-77
2022/05/07 10:01:56;;;;;;;13.40;10.70;;;;;;;;;;5051616;28;20068;-76
2022/05/07 10:04:43;;;;;;;13.77;9.75;;;;;;;;;;5052786;28;20080;-77
2022/05/07 10:07:33;;;;;;;12.23;8.65;;;;;;;;;;5053557;28;20492;-78
2022/05/07 10:10:12;;;;;;;10.82;7.75;;;;;;;;;;5052855;28;20032;-78
2022/05/07 10:12:42;;;;;;;18.83;10.32;;;;;;;;;;5034672;28;20494;-74
2022/05/07 10:15:09;;;;;;;12.65;9.15;;;;;;;;;;5051174;28;20087;-77
2022/05/07 10:17:35;;;;;;;12.27;9.40;;;;;;;;;;5050789;28;20506;-79
2022/05/07 10:20:09;;;;;;;13.73;9.50;;;;;;;;;;5052816;28;20024;-79
2022/05/07 10:22:35;;;;;;;11.82;9.00;;;;;;;;;;5040921;28;20028;-78
2022/05/07 10:25:13;;;;;;;12.43;8.88;;;;;;;;;;5057057;28;20119;-78
2022/05/07 10:27:41;;;;;;;11.70;7.80;;;;;;;;;;5054487;28;20031;-79
2022/05/07 10:30:16;;;;;;;9.77;7.32;;;;;;;;;;5057284;28;20052;-77
2022/05/07 10:32:58;;;;;;;11.27;8.23;;;;;;;;;;5046586;28;20086;-77
2022/05/07 10:36:07;;;;;;;10.43;7.97;;;;;;;;;;5054910;28;20020;-79
2022/05/07 10:38:36;;;;;;;10.38;8.00;;;;;;;;;;5012342;28;20091;-80
2022/05/07 10:41:04;;;;;;;12.13;7.15;;;;;;;;;;4994158;28;20101;-77
2022/05/07 10:43:46;;;;;;;7.85;6.97;;;;;;;;;;5016024;28;20314;-77
2022/05/07 10:46:16;;;;;;;8.55;6.95;;;;;;;;;;5051498;28;20054;-78
2022/05/07 10:48:56;;;;;;;9.40;5.97;;;;;;;;;;5051221;28;20021;-77
2022/05/07 10:51:37;;;;;;;7.20;5.22;;;;;;;;;;5052661;28;20020;-77
2022/05/07 10:54:21;;;;;;;7.15;5.75;;;;;;;;;;5050645;28;20028;-77
2022/05/07 10:56:58;;;;;;;6.15;5.20;;;;;;;;;;5052773;28;20466;-78
2022/05/07 10:59:27;;;;;;;6.57;4.43;;;;;;;;;;5048025;28;20043;-78
2022/05/07 11:02:09;;;;;;;7.20;5.20;;;;;;;;;;5049522;28;20040;-78
2022/05/07 11:04:44;;;;;;;8.38;5.20;;;;;;;;;;5048112;28;20020;-78
2022/05/07 11:07:10;;;;;;;7.07;5.47;;;;;;;;;;5043342;28;20036;-78
2022/05/07 11:09:37;;;;;;;8.00;5.30;;;;;;;;;;5043265;28;20039;-78
2022/05/07 11:12:03;;;;;;;5.35;4.40;;;;;;;;;;5044101;28;20029;-78
2022/05/07 11:14:35;;;;;;;6.95;5.10;;;;;;;;;;5042175;28;20040;-78
2022/05/07 11:17:03;;;;;;;5.43;4.93;;;;;;;;;;5041739;28;20055;-78
2022/05/07 11:19:31;;;;;;;8.15;5.47;;;;;;;;;;5040411;28;20441;-77
2022/05/07 11:21:59;;;;;;;6.63;4.97;;;;;;;;;;5039816;28;20040;-77
2022/05/07 11:24:26;;;;;;;8.07;5.57;;;;;;;;;;5040375;28;20052;-77
2022/05/07 11:27:02;;;;;;;4.95;4.28;;;;;;;;;;5038919;28;20029;-77
2022/05/07 11:29:29;;;;;;;5.45;4.32;;;;;;;;;;5041745;28;20036;-77
2022/05/07 11:32:04;;;;;;;7.40;4.57;;;;;;;;;;5042614;28;20053;-76
2022/05/07 11:34:35;;;;;;;5.53;4.40;;;;;;;;;;5041408;28;20117;-76
2022/05/07 11:37:10;;;;;;;6.40;3.87;;;;;;;;;;5054010;28;20461;-78
2022/05/07 11:39:59;;;;;;;7.13;3.60;;;;;;;;;;5040566;28;20419;-78
2022/05/07 11:42:30;;;;;;;4.47;3.78;;;;;;;;;;5041946;28;20047;-78
2022/05/07 11:47:53;;;;;;;4.95;3.60;;;;;;;;;;5046284;28;20036;-78
2022/05/07 11:50:30;;;;;;;6.63;3.35;;;;;;;;;;5047829;28;20494;-77
2022/05/07 11:52:56;;;;;;;4.10;3.25;;;;;;;;;;5047366;28;20032;-77
2022/05/07 11:55:26;;;;;;;4.43;3.45;;;;;;;;;;5045928;28;20328;-77
2022/05/07 11:57:51;;;;;;;6.63;3.75;;;;;;;;;;5040833;28;20029;-77
2022/05/07 12:00:20;;;;;;;5.82;3.88;;;;;;;;;;5049186;28;20056;-78
2022/05/07 12:03:01;;;;;;;4.25;3.85;;;;;;;;;;5050296;28;20470;-75
2022/05/07 12:05:39;;;;;;;5.23;3.93;;;;;;;;;;5050992;28;20028;-76
2022/05/07 12:08:15;;;;;;;4.05;3.00;;;;;;;;;;5051918;28;20486;-76
2022/05/07 12:10:42;;;;;;;3.45;2.40;;;;;;;;;;5050869;28;20039;-76
2022/05/07 12:13:08;;;;;;;2.97;2.67;;;;;;;;;;5051184;28;20393;-77
2022/05/07 12:18:20;;;;;;;4.25;2.83;;;;;;;;;;5051500;28;20039;-77
2022/05/07 12:20:45;;;;;;;4.95;3.10;;;;;;;;;;5051364;28;20025;-77
2022/05/07 12:31:22;;;;;;;4.15;3.00;;;;;;;;;;5050798;28;20094;-75
2022/05/07 12:33:47;;;;;;;5.10;3.28;;;;;;;;;;5051781;28;20020;-76
2022/05/07 12:36:13;;;;;;;3.63;3.10;;;;;;;;;;5051651;28;20508;-77
2022/05/07 12:38:38;;;;;;;4.97;3.33;;;;;;;;;;5052124;28;20021;-78
2022/05/07 12:41:03;;;;;;;3.90;3.50;;;;;;;;;;5051741;28;20162;-78
2022/05/07 12:43:29;;;;;;;5.88;3.90;;;;;;;;;;5050880;28;20024;-74
2022/05/07 12:45:54;;;;;;;4.05;3.08;;;;;;;;;;5052028;28;20272;-77
2022/05/07 12:48:20;;;;;;;6.10;3.63;;;;;;;;;;5052262;28;20025;-72
2022/05/07 12:50:46;;;;;;;4.47;3.38;;;;;;;;;;5045134;28;20462;-76
2022/05/07 12:53:14;;;;;;;4.05;3.40;;;;;;;;;;5047643;28;20059;-77
2022/05/07 12:55:40;;;;;;;5.20;3.70;;;;;;;;;;5049296;28;20027;-75
2022/05/07 12:58:06;;;;;;;4.05;3.45;;;;;;;;;;5050157;28;20453;-76
2022/05/07 13:00:31;;;;;;;6.30;3.40;;;;;;;;;;5052616;28;20066;-75
2022/05/07 13:03:00;;;;;;;4.03;3.30;;;;;;;;;;5050409;28;20445;-76
2022/05/07 13:05:26;;;;;;;3.67;3.38;;;;;;;;;;5050952;28;20219;-79
2022/05/07 13:07:51;;;;;;;4.70;3.33;;;;;;;;;;5047473;28;20398;-79
2022/05/07 13:10:17;;;;;;;7.28;3.15;;;;;;;;;;5049710;28;20029;-73
2022/05/07 13:12:42;;;;;;;4.53;3.20;;;;;;;;;;5046728;28;20029;-74
2022/05/07 13:15:08;;;;;;;3.85;2.95;;;;;;;;;;5045240;28;20032;-77
2022/05/07 13:17:34;;;;;;;4.13;3.15;;;;;;;;;;5043660;28;20029;-78
2022/05/07 13:19:59;;;;;;;3.60;2.83;;;;;;;;;;5041426;28;20040;-75
2022/05/07 13:22:26;;;;;;;7.70;3.42;;;;;;;;;;5043188;28;20186;-79
2022/05/07 13:24:51;;;;;;;3.45;2.70;;;;;;;;;;5042800;28;20033;-78
2022/05/07 13:27:16;;;;;;;5.07;2.83;;;;;;;;;;5041930;28;20225;-77
2022/05/07 13:29:41;;;;;;;3.88;2.90;;;;;;;;;;5048866;28;20036;-77
2022/05/07 13:32:08;;;;;;;4.90;3.10;;;;;;;;;;5043402;28;20063;-78
2022/05/07 13:34:33;;;;;;;3.33;2.67;;;;;;;;;;5049003;28;20543;-75
2022/05/07 13:36:59;;;;;;;5.85;2.97;;;;;;;;;;5051706;28;20037;-78
2022/05/07 13:39:24;;;;;;;3.05;2.75;;;;;;;;;;5047921;28;20021;-73
2022/05/07 13:41:50;;;;;;;3.45;2.60;;;;;;;;;;5064373;28;20457;-78
2022/05/07 13:44:15;;;;;;;3.67;3.00;;;;;;;;;;5049296;28;20603;-79
2022/05/07 13:46:41;;;;;;;3.90;2.88;;;;;;;;;;5044582;28;20037;-77
2022/05/07 13:49:06;;;;;;;3.70;3.00;;;;;;;;;;5030055;28;20029;-74
2022/05/07 13:51:31;;;;;;;4.45;3.10;;;;;;;;;;5047692;28;20031;-78
2022/05/07 13:53:58;;;;;;;3.53;2.80;;;;;;;;;;5049547;28;20031;-76
2022/05/07 13:56:25;;;;;;;3.60;2.90;;;;;;;;;;5046845;28;20021;-78
2022/05/07 13:58:51;;;;;;;3.88;2.88;;;;;;;;;;5050509;28;20021;-79
2022/05/07 14:01:16;;;;;;;2.92;2.53;;;;;;;;;;5049263;28;20128;-76
2022/05/07 14:03:42;;;;;;;3.33;2.75;;;;;;;;;;5049517;28;20049;-78
2022/05/07 14:06:07;;;;;;;3.30;2.72;;;;;;;;;;5047701;28;20029;-76
2022/05/07 14:08:33;;;;;;;3.70;2.83;;;;;;;;;;5050240;28;20028;-77
2022/05/07 14:10:59;;;;;;;5.85;2.88;;;;;;;;;;5050807;28;20025;-78
2022/05/07 14:13:24;;;;;;;3.97;2.72;;;;;;;;;;5048657;28;20275;-76
2022/05/07 14:15:49;;;;;;;2.80;2.60;;;;;;;;;;5048449;28;20021;-76
2022/05/07 14:18:16;;;;;;;3.60;2.55;;;;;;;;;;5048927;28;20491;-77
2022/05/07 14:20:41;;;;;;;7.47;2.30;;;;;;;;;;5046725;28;20421;-77
2022/05/07 14:23:09;;;;;;;3.60;2.20;;;;;;;;;;5049067;28;20055;-78
2022/05/07 14:25:35;;;;;;;3.80;2.67;;;;;;;;;;5051818;28;20028;-77
2022/05/07 14:28:00;;;;;;;3.92;2.33;;;;;;;;;;5049421;28;20017;-77
2022/05/07 14:30:25;;;;;;;3.50;2.90;;;;;;;;;;5049129;28;20025;-76
2022/05/07 14:32:50;;;;;;;3.97;2.85;;;;;;;;;;5049256;28;20092;-76
2022/05/07 14:35:16;;;;;;;5.88;2.83;;;;;;;;;;5049683;28;20056;-75
2022/05/07 14:37:41;;;;;;;2.97;2.65;;;;;;;;;;5049226;28;20024;-75
2022/05/07 14:42:53;;;;;;;3.17;2.85;;;;;;;;;;5043441;28;20079;-77
2022/05/07 14:45:19;;;;;;;3.25;2.88;;;;;;;;;;5049975;28;20032;-78
2022/05/07 14:47:44;;;;;;;5.13;3.60;;;;;;;;;;5050417;28;20035;-75
2022/05/07 14:50:10;;;;;;;5.10;2.95;;;;;;;;;;5049246;28;20119;-75
2022/05/07 14:52:35;;;;;;;4.25;3.00;;;;;;;;;;5050565;28;20513;-77
2022/05/07 14:55:00;;;;;;;4.90;2.65;;;;;;;;;;5048366;28;20291;-76
2022/05/07 14:57:26;;;;;;;3.45;3.05;;;;;;;;;;5050219;28;20063;-78
2022/05/07 14:59:51;;;;;;;3.50;2.60;;;;;;;;;;5046796;28;20195;-78
2022/05/07 15:02:17;;;;;;;3.83;2.72;;;;;;;;;;5038033;28;20056;-77
2022/05/07 15:04:42;;;;;;;4.47;2.63;;;;;;;;;;5049545;28;20486;-75
2022/05/07 15:07:08;;;;;;;4.63;2.80;;;;;;;;;;5049381;28;20063;-76
2022/05/07 15:12:17;;;;;;;4.97;3.10;;;;;;;;;;5048688;28;20401;-76
2022/05/07 15:14:45;;;;;;;4.55;3.20;;;;;;;;;;5048862;28;20099;-76
2022/05/07 15:17:10;;;;;;;4.97;3.35;;;;;;;;;;5048672;28;20029;-78
2022/05/07 15:19:36;;;;;;;6.90;3.63;;;;;;;;;;5048317;28;20029;-75
2022/05/07 15:22:02;;;;;;;3.97;3.58;;;;;;;;;;5047915;28;20082;-78